ACA418 CYUL-CYYZ
Flight info
| Callsign | ACA418 |
|---|---|
| Flight time | 1h 0m |
| Altitude | 34000 |
| Route | BOBKI DCT MELTI DCT TORNI RAGID6 |
| Aircraft | A20N/M-SDE2E3FGHIRWXY/LB1 |
Departure
| Time | 2026-05-07 23:28 |
|---|---|
| Airport | Montreal / Pierre Elliott Trudeau International Airport (CYUL) |
Arrival
| Time | 2026-05-08 00:29 |
|---|---|
| Airport | Toronto Pearson International Airport (CYYZ) |
| Time | Latitude | Longitude | Altitude | Speed | Heading |
|---|---|---|---|---|---|
| 2026-05-07 23:01 | 45.45862 | -73.75583 | 105 ft | 0 kts | 6° |
| 2026-05-07 23:10 | 45.45849 | -73.75585 | 103 ft | 2 kts | 6° |
| 2026-05-07 23:10 | 45.45832 | -73.75588 | 103 ft | 2 kts | 6° |
| 2026-05-07 23:10 | 45.45815 | -73.75590 | 103 ft | 2 kts | 6° |
| 2026-05-07 23:10 | 45.45798 | -73.75593 | 103 ft | 2 kts | 6° |
| 2026-05-07 23:11 | 45.45781 | -73.75589 | 103 ft | 2 kts | 322° |
| 2026-05-07 23:11 | 45.45769 | -73.75573 | 103 ft | 2 kts | 275° |
| 2026-05-07 23:11 | 45.45767 | -73.75549 | 101 ft | 2 kts | 256° |
| 2026-05-07 23:11 | 45.45767 | -73.75548 | 101 ft | 0 kts | 253° |
| 2026-05-07 23:14 | 45.45767 | -73.75547 | 101 ft | 0 kts | 250° |
| 2026-05-07 23:15 | 45.45767 | -73.75548 | 101 ft | 0 kts | 251° |
| 2026-05-07 23:15 | 45.45771 | -73.75536 | 104 ft | 1 kts | 223° |
| 2026-05-07 23:15 | 45.45764 | -73.75548 | 107 ft | 6 kts | 232° |
| 2026-05-07 23:16 | 45.45746 | -73.75611 | 105 ft | 7 kts | 251° |
| 2026-05-07 23:16 | 45.45729 | -73.75694 | 105 ft | 10 kts | 254° |
| 2026-05-07 23:16 | 45.45729 | -73.75794 | 104 ft | 11 kts | 295° |
| 2026-05-07 23:16 | 45.45777 | -73.75883 | 105 ft | 12 kts | 314° |
| 2026-05-07 23:17 | 45.45850 | -73.75942 | 105 ft | 13 kts | 342° |
| 2026-05-07 23:17 | 45.45944 | -73.75957 | 105 ft | 15 kts | 358° |
| 2026-05-07 23:17 | 45.46054 | -73.75961 | 104 ft | 14 kts | 358° |
| 2026-05-07 23:17 | 45.46126 | -73.75875 | 102 ft | 19 kts | 84° |
| 2026-05-07 23:18 | 45.46131 | -73.75694 | 102 ft | 18 kts | 87° |
| 2026-05-07 23:18 | 45.46138 | -73.75508 | 102 ft | 18 kts | 87° |
| 2026-05-07 23:18 | 45.46143 | -73.75338 | 101 ft | 16 kts | 89° |
| 2026-05-07 23:18 | 45.46146 | -73.75184 | 102 ft | 14 kts | 88° |
| 2026-05-07 23:19 | 45.46150 | -73.75041 | 104 ft | 17 kts | 87° |
| 2026-05-07 23:19 | 45.46156 | -73.74838 | 104 ft | 23 kts | 87° |
| 2026-05-07 23:19 | 45.46158 | -73.74618 | 103 ft | 21 kts | 103° |
| 2026-05-07 23:19 | 45.46131 | -73.74433 | 103 ft | 18 kts | 93° |
| 2026-05-07 23:20 | 45.46136 | -73.74244 | 103 ft | 20 kts | 88° |
| 2026-05-07 23:20 | 45.46152 | -73.74058 | 105 ft | 20 kts | 66° |
| 2026-05-07 23:20 | 45.46257 | -73.73906 | 105 ft | 22 kts | 43° |
| 2026-05-07 23:20 | 45.46370 | -73.73756 | 107 ft | 22 kts | 42° |
| 2026-05-07 23:21 | 45.46486 | -73.73603 | 109 ft | 23 kts | 43° |
| 2026-05-07 23:21 | 45.46603 | -73.73451 | 111 ft | 23 kts | 43° |
| 2026-05-07 23:21 | 45.46722 | -73.73294 | 113 ft | 23 kts | 42° |
| 2026-05-07 23:21 | 45.46843 | -73.73136 | 114 ft | 25 kts | 44° |
| 2026-05-07 23:22 | 45.46969 | -73.72970 | 115 ft | 25 kts | 42° |
| 2026-05-07 23:22 | 45.47096 | -73.72804 | 116 ft | 25 kts | 43° |
| 2026-05-07 23:22 | 45.47224 | -73.72636 | 118 ft | 25 kts | 42° |
| 2026-05-07 23:22 | 45.47349 | -73.72472 | 114 ft | 20 kts | 42° |
| 2026-05-07 23:23 | 45.47456 | -73.72335 | 118 ft | 21 kts | 42° |
| 2026-05-07 23:23 | 45.47564 | -73.72190 | 118 ft | 22 kts | 42° |
| 2026-05-07 23:23 | 45.47678 | -73.72042 | 120 ft | 22 kts | 44° |
| 2026-05-07 23:23 | 45.47783 | -73.71906 | 121 ft | 15 kts | 42° |
| 2026-05-07 23:24 | 45.47859 | -73.71805 | 120 ft | 16 kts | 45° |
| 2026-05-07 23:24 | 45.47840 | -73.71678 | 121 ft | 13 kts | 128° |
| 2026-05-07 23:24 | 45.47829 | -73.71660 | 122 ft | 0 kts | 133° |
| 2026-05-07 23:24 | 45.47827 | -73.71656 | 122 ft | 4 kts | 133° |
| 2026-05-07 23:25 | 45.47784 | -73.71590 | 123 ft | 7 kts | 133° |
| 2026-05-07 23:25 | 45.47758 | -73.71565 | 124 ft | 0 kts | 160° |
| 2026-05-07 23:26 | 45.47757 | -73.71564 | 124 ft | 0 kts | 160° |
| 2026-05-07 23:27 | 45.47739 | -73.71565 | 124 ft | 3 kts | 189° |
| 2026-05-07 23:27 | 45.47683 | -73.71629 | 123 ft | 14 kts | 219° |
| 2026-05-07 23:27 | 45.47663 | -73.71655 | 123 ft | 2 kts | 222° |
| 2026-05-07 23:28 | 45.47504 | -73.71868 | 123 ft | 69 kts | 224° |
| 2026-05-07 23:28 | 45.46985 | -73.72540 | 118 ft | 130 kts | 223° |
| 2026-05-07 23:28 | 45.46217 | -73.73572 | 258 ft | 161 kts | 228° |
| 2026-05-07 23:28 | 45.45388 | -73.74643 | 889 ft | 161 kts | 230° |
| 2026-05-07 23:29 | 45.44577 | -73.75729 | 1610 ft | 159 kts | 233° |
| 2026-05-07 23:29 | 45.44079 | -73.77147 | 2039 ft | 169 kts | 261° |
| 2026-05-07 23:29 | 45.43959 | -73.78824 | 2642 ft | 170 kts | 268° |
| 2026-05-07 23:29 | 45.43884 | -73.80520 | 3234 ft | 174 kts | 265° |
| 2026-05-07 23:30 | 45.43757 | -73.82271 | 3774 ft | 181 kts | 265° |
| 2026-05-07 23:30 | 45.43631 | -73.84070 | 4324 ft | 188 kts | 266° |
| 2026-05-07 23:30 | 45.43500 | -73.85991 | 4783 ft | 203 kts | 265° |
| 2026-05-07 23:30 | 45.43362 | -73.88052 | 5353 ft | 214 kts | 265° |
| 2026-05-07 23:31 | 45.43211 | -73.90203 | 6033 ft | 222 kts | 265° |
| 2026-05-07 23:31 | 45.43024 | -73.92410 | 6743 ft | 228 kts | 264° |
| 2026-05-07 23:31 | 45.42811 | -73.94683 | 7453 ft | 234 kts | 264° |
| 2026-05-07 23:31 | 45.42595 | -73.97005 | 8184 ft | 240 kts | 264° |
| 2026-05-07 23:32 | 45.42374 | -73.99388 | 8949 ft | 245 kts | 264° |
| 2026-05-07 23:32 | 45.42145 | -74.01819 | 9664 ft | 252 kts | 264° |
| 2026-05-07 23:32 | 45.41913 | -74.04345 | 10268 ft | 260 kts | 264° |
| 2026-05-07 23:32 | 45.41688 | -74.06933 | 10913 ft | 267 kts | 264° |
| 2026-05-07 23:33 | 45.41458 | -74.09599 | 11564 ft | 274 kts | 264° |
| 2026-05-07 23:33 | 45.41221 | -74.12311 | 12230 ft | 279 kts | 264° |
| 2026-05-07 23:33 | 45.40975 | -74.15067 | 12956 ft | 282 kts | 264° |
| 2026-05-07 23:33 | 45.40723 | -74.17853 | 13700 ft | 285 kts | 263° |
| 2026-05-07 23:34 | 45.40463 | -74.20664 | 14316 ft | 289 kts | 263° |
| 2026-05-07 23:34 | 45.40193 | -74.23528 | 14878 ft | 295 kts | 263° |
| 2026-05-07 23:34 | 45.39921 | -74.26439 | 15475 ft | 298 kts | 263° |
| 2026-05-07 23:34 | 45.39649 | -74.29379 | 16119 ft | 301 kts | 263° |
| 2026-05-07 23:35 | 45.39375 | -74.32344 | 16793 ft | 303 kts | 263° |
| 2026-05-07 23:35 | 45.39102 | -74.35320 | 17480 ft | 304 kts | 263° |
| 2026-05-07 23:35 | 45.38839 | -74.38294 | 18180 ft | 304 kts | 263° |
| 2026-05-07 23:35 | 45.38575 | -74.41277 | 18807 ft | 303 kts | 263° |
| 2026-05-07 23:36 | 45.38314 | -74.44205 | 19445 ft | 302 kts | 263° |
| 2026-05-07 23:36 | 45.38048 | -74.47173 | 20106 ft | 301 kts | 263° |
| 2026-05-07 23:36 | 45.37782 | -74.50112 | 20769 ft | 299 kts | 263° |
| 2026-05-07 23:36 | 45.37517 | -74.53032 | 21451 ft | 296 kts | 263° |
| 2026-05-07 23:37 | 45.37248 | -74.55921 | 22137 ft | 294 kts | 263° |
| 2026-05-07 23:37 | 45.36975 | -74.58786 | 22836 ft | 291 kts | 262° |
| 2026-05-07 23:37 | 45.36697 | -74.61617 | 23498 ft | 289 kts | 262° |
| 2026-05-07 23:37 | 45.36408 | -74.64458 | 23931 ft | 290 kts | 262° |
| 2026-05-07 23:38 | 45.36104 | -74.67294 | 24402 ft | 290 kts | 261° |
| 2026-05-07 23:38 | 45.35785 | -74.70129 | 24889 ft | 290 kts | 261° |
| 2026-05-07 23:38 | 45.35453 | -74.72952 | 25398 ft | 288 kts | 260° |
| 2026-05-07 23:38 | 45.35117 | -74.75751 | 25924 ft | 287 kts | 261° |
| 2026-05-07 23:39 | 45.34800 | -74.78536 | 26412 ft | 286 kts | 261° |
| 2026-05-07 23:39 | 45.34551 | -74.81332 | 26742 ft | 288 kts | 263° |
| 2026-05-07 23:39 | 45.34344 | -74.84165 | 27169 ft | 289 kts | 263° |
| 2026-05-07 23:39 | 45.34129 | -74.87014 | 27540 ft | 291 kts | 261° |
| 2026-05-07 23:40 | 45.33749 | -74.89848 | 27900 ft | 293 kts | 257° |
| 2026-05-07 23:40 | 45.33296 | -74.92689 | 28267 ft | 295 kts | 257° |
| 2026-05-07 23:40 | 45.32974 | -74.94608 | 28501 ft | 297 kts | 256° |
| 2026-05-07 23:40 | 45.32487 | -74.97437 | 28847 ft | 299 kts | 256° |
| 2026-05-07 23:41 | 45.31986 | -75.00319 | 29207 ft | 301 kts | 256° |
| 2026-05-07 23:41 | 45.31479 | -75.03213 | 29550 ft | 304 kts | 256° |
| 2026-05-07 23:41 | 45.30965 | -75.06144 | 29880 ft | 306 kts | 256° |
| 2026-05-07 23:41 | 45.30450 | -75.09090 | 30166 ft | 309 kts | 256° |
| 2026-05-07 23:42 | 45.29933 | -75.12064 | 30454 ft | 311 kts | 256° |
| 2026-05-07 23:42 | 45.29416 | -75.15044 | 30715 ft | 313 kts | 256° |
| 2026-05-07 23:42 | 45.28892 | -75.18055 | 30996 ft | 316 kts | 256° |
| 2026-05-07 23:42 | 45.28360 | -75.21112 | 31196 ft | 320 kts | 256° |
| 2026-05-07 23:43 | 45.27818 | -75.24200 | 31460 ft | 323 kts | 256° |
| 2026-05-07 23:43 | 45.27272 | -75.27301 | 31746 ft | 326 kts | 256° |
| 2026-05-07 23:43 | 45.26722 | -75.30445 | 32000 ft | 329 kts | 256° |
| 2026-05-07 23:43 | 45.26170 | -75.33599 | 32288 ft | 331 kts | 255° |
| 2026-05-07 23:44 | 45.25609 | -75.36783 | 32570 ft | 333 kts | 255° |
| 2026-05-07 23:44 | 45.25045 | -75.39985 | 32842 ft | 335 kts | 255° |
| 2026-05-07 23:44 | 45.24477 | -75.43210 | 33076 ft | 338 kts | 255° |
| 2026-05-07 23:44 | 45.23904 | -75.46451 | 33322 ft | 340 kts | 255° |
| 2026-05-07 23:45 | 45.23328 | -75.49713 | 33568 ft | 341 kts | 255° |
| 2026-05-07 23:45 | 45.22756 | -75.52943 | 33787 ft | 344 kts | 255° |
| 2026-05-07 23:45 | 45.21563 | -75.59648 | 33844 ft | 357 kts | 255° |
| 2026-05-07 23:46 | 45.20315 | -75.66626 | 33845 ft | 373 kts | 255° |
| 2026-05-07 23:46 | 45.19012 | -75.73885 | 33846 ft | 387 kts | 255° |
| 2026-05-07 23:47 | 45.17659 | -75.81401 | 33849 ft | 400 kts | 255° |
| 2026-05-07 23:47 | 45.16269 | -75.89091 | 33853 ft | 408 kts | 255° |
| 2026-05-07 23:48 | 45.14847 | -75.96895 | 33866 ft | 409 kts | 255° |
| 2026-05-07 23:48 | 45.13419 | -76.04704 | 33882 ft | 410 kts | 255° |
| 2026-05-07 23:49 | 45.11987 | -76.12546 | 33850 ft | 412 kts | 255° |
| 2026-05-07 23:49 | 45.10537 | -76.20390 | 33868 ft | 411 kts | 255° |
| 2026-05-07 23:50 | 45.08235 | -76.27770 | 33880 ft | 411 kts | 242° |
| 2026-05-07 23:50 | 45.05439 | -76.34855 | 33884 ft | 411 kts | 242° |
| 2026-05-07 23:51 | 45.04042 | -76.38390 | 33589 ft | 413 kts | 242° |
| 2026-05-07 23:51 | 45.02652 | -76.41902 | 33199 ft | 406 kts | 242° |
| 2026-05-07 23:51 | 45.01278 | -76.45374 | 32934 ft | 403 kts | 242° |
| 2026-05-07 23:51 | 44.99916 | -76.48814 | 32672 ft | 402 kts | 242° |
| 2026-05-07 23:52 | 44.98559 | -76.52213 | 32442 ft | 402 kts | 242° |
| 2026-05-07 23:52 | 44.97180 | -76.55676 | 32169 ft | 404 kts | 242° |
| 2026-05-07 23:52 | 44.95808 | -76.59137 | 31916 ft | 404 kts | 242° |
| 2026-05-07 23:52 | 44.94435 | -76.62600 | 31666 ft | 404 kts | 242° |
| 2026-05-07 23:53 | 44.93060 | -76.66057 | 31431 ft | 403 kts | 242° |
| 2026-05-07 23:53 | 44.91691 | -76.69485 | 31172 ft | 401 kts | 242° |
| 2026-05-07 23:53 | 44.90321 | -76.72911 | 30927 ft | 399 kts | 242° |
| 2026-05-07 23:53 | 44.88958 | -76.76313 | 30685 ft | 398 kts | 242° |
| 2026-05-07 23:54 | 44.87601 | -76.79699 | 30449 ft | 396 kts | 242° |
| 2026-05-07 23:54 | 44.86250 | -76.83076 | 30205 ft | 394 kts | 242° |
| 2026-05-07 23:54 | 44.84902 | -76.86437 | 29967 ft | 393 kts | 242° |
| 2026-05-07 23:54 | 44.83555 | -76.89780 | 29683 ft | 391 kts | 242° |
| 2026-05-07 23:55 | 44.82229 | -76.93068 | 29381 ft | 389 kts | 242° |
| 2026-05-07 23:55 | 44.80900 | -76.96370 | 29085 ft | 385 kts | 242° |
| 2026-05-07 23:55 | 44.79584 | -76.99640 | 28817 ft | 383 kts | 242° |
| 2026-05-07 23:55 | 44.78267 | -77.02905 | 28535 ft | 383 kts | 242° |
| 2026-05-07 23:56 | 44.76948 | -77.06165 | 28251 ft | 383 kts | 242° |
| 2026-05-07 23:56 | 44.75646 | -77.09379 | 27976 ft | 382 kts | 242° |
| 2026-05-07 23:56 | 44.74330 | -77.12629 | 27700 ft | 380 kts | 242° |
| 2026-05-07 23:56 | 44.73027 | -77.15846 | 27434 ft | 379 kts | 242° |
| 2026-05-07 23:57 | 44.71724 | -77.19059 | 27166 ft | 378 kts | 242° |
| 2026-05-07 23:57 | 44.70422 | -77.22267 | 26899 ft | 376 kts | 242° |
| 2026-05-07 23:57 | 44.69127 | -77.25457 | 26633 ft | 375 kts | 242° |
| 2026-05-07 23:57 | 44.67835 | -77.28628 | 26371 ft | 374 kts | 242° |
| 2026-05-07 23:58 | 44.66539 | -77.31796 | 26104 ft | 372 kts | 242° |
| 2026-05-07 23:58 | 44.65254 | -77.34943 | 25857 ft | 371 kts | 242° |
| 2026-05-07 23:58 | 44.63991 | -77.38033 | 25595 ft | 370 kts | 242° |
| 2026-05-07 23:58 | 44.62716 | -77.41161 | 25341 ft | 368 kts | 242° |
| 2026-05-07 23:59 | 44.61446 | -77.44274 | 25093 ft | 367 kts | 242° |
| 2026-05-07 23:59 | 44.60175 | -77.47383 | 24851 ft | 367 kts | 242° |
| 2026-05-07 23:59 | 44.58903 | -77.50491 | 24601 ft | 367 kts | 242° |
| 2026-05-07 23:59 | 44.57624 | -77.53602 | 24347 ft | 367 kts | 242° |
| 2026-05-08 00:00 | 44.56345 | -77.56696 | 24113 ft | 366 kts | 242° |
| 2026-05-08 00:00 | 44.55066 | -77.59795 | 23874 ft | 365 kts | 242° |
| 2026-05-08 00:00 | 44.53810 | -77.62832 | 23639 ft | 364 kts | 242° |
| 2026-05-08 00:00 | 44.52542 | -77.65898 | 23389 ft | 363 kts | 242° |
| 2026-05-08 00:01 | 44.51278 | -77.68953 | 23094 ft | 362 kts | 242° |
| 2026-05-08 00:01 | 44.50021 | -77.72001 | 22808 ft | 361 kts | 242° |
| 2026-05-08 00:01 | 44.48766 | -77.75046 | 22534 ft | 359 kts | 242° |
| 2026-05-08 00:01 | 44.47517 | -77.78070 | 22254 ft | 358 kts | 242° |
| 2026-05-08 00:02 | 44.46271 | -77.81078 | 21980 ft | 356 kts | 242° |
| 2026-05-08 00:02 | 44.45027 | -77.84069 | 21706 ft | 355 kts | 242° |
| 2026-05-08 00:02 | 44.43786 | -77.87048 | 21434 ft | 353 kts | 242° |
| 2026-05-08 00:02 | 44.42550 | -77.90011 | 21167 ft | 352 kts | 242° |
| 2026-05-08 00:03 | 44.41317 | -77.92965 | 20894 ft | 350 kts | 242° |
| 2026-05-08 00:03 | 44.40086 | -77.95908 | 20635 ft | 350 kts | 241° |
| 2026-05-08 00:03 | 44.38857 | -77.98843 | 20387 ft | 350 kts | 241° |
| 2026-05-08 00:03 | 44.37629 | -78.01772 | 20121 ft | 349 kts | 242° |
| 2026-05-08 00:04 | 44.36409 | -78.04688 | 19853 ft | 347 kts | 241° |
| 2026-05-08 00:04 | 44.35197 | -78.07582 | 19598 ft | 344 kts | 241° |
| 2026-05-08 00:04 | 44.33987 | -78.10462 | 19351 ft | 343 kts | 241° |
| 2026-05-08 00:04 | 44.32778 | -78.13334 | 19099 ft | 341 kts | 241° |
| 2026-05-08 00:05 | 44.31581 | -78.16185 | 18847 ft | 340 kts | 241° |
| 2026-05-08 00:05 | 44.30387 | -78.19034 | 18601 ft | 339 kts | 241° |
| 2026-05-08 00:05 | 44.29198 | -78.21862 | 18328 ft | 338 kts | 241° |
| 2026-05-08 00:05 | 44.28025 | -78.24643 | 18079 ft | 336 kts | 241° |
| 2026-05-08 00:06 | 44.26838 | -78.27445 | 17797 ft | 335 kts | 241° |
| 2026-05-08 00:06 | 44.25654 | -78.30231 | 17519 ft | 333 kts | 241° |
| 2026-05-08 00:06 | 44.24475 | -78.33004 | 17241 ft | 331 kts | 241° |
| 2026-05-08 00:06 | 44.23305 | -78.35766 | 16969 ft | 330 kts | 241° |
| 2026-05-08 00:07 | 44.22141 | -78.38516 | 16699 ft | 328 kts | 241° |
| 2026-05-08 00:07 | 44.20983 | -78.41247 | 16430 ft | 327 kts | 241° |
| 2026-05-08 00:07 | 44.19828 | -78.43967 | 16165 ft | 325 kts | 241° |
| 2026-05-08 00:07 | 44.18680 | -78.46671 | 15900 ft | 324 kts | 241° |
| 2026-05-08 00:08 | 44.17531 | -78.49370 | 15642 ft | 322 kts | 241° |
| 2026-05-08 00:08 | 44.16390 | -78.52045 | 15380 ft | 321 kts | 241° |
| 2026-05-08 00:08 | 44.15253 | -78.54708 | 15127 ft | 319 kts | 241° |
| 2026-05-08 00:08 | 44.14120 | -78.57359 | 14878 ft | 318 kts | 242° |
| 2026-05-08 00:09 | 44.13006 | -78.59964 | 14637 ft | 316 kts | 241° |
| 2026-05-08 00:09 | 44.11879 | -78.62594 | 14381 ft | 315 kts | 241° |
| 2026-05-08 00:09 | 44.10762 | -78.65203 | 14136 ft | 314 kts | 242° |
| 2026-05-08 00:09 | 44.09641 | -78.67824 | 13893 ft | 312 kts | 242° |
| 2026-05-08 00:10 | 44.08533 | -78.70408 | 13636 ft | 310 kts | 242° |
| 2026-05-08 00:10 | 44.07430 | -78.72980 | 13349 ft | 309 kts | 242° |
| 2026-05-08 00:10 | 44.06329 | -78.75542 | 13077 ft | 307 kts | 242° |
| 2026-05-08 00:10 | 44.05239 | -78.78078 | 12792 ft | 305 kts | 242° |
| 2026-05-08 00:11 | 44.04151 | -78.80603 | 12520 ft | 303 kts | 242° |
| 2026-05-08 00:11 | 44.03050 | -78.83093 | 12248 ft | 302 kts | 240° |
| 2026-05-08 00:11 | 44.01942 | -78.85525 | 11985 ft | 300 kts | 240° |
| 2026-05-08 00:11 | 44.00818 | -78.87959 | 11717 ft | 299 kts | 240° |
| 2026-05-08 00:12 | 43.99697 | -78.90377 | 11459 ft | 297 kts | 240° |
| 2026-05-08 00:12 | 43.98581 | -78.92793 | 11199 ft | 296 kts | 240° |
| 2026-05-08 00:12 | 43.97480 | -78.95190 | 11018 ft | 293 kts | 240° |
| 2026-05-08 00:12 | 43.96417 | -78.97497 | 10995 ft | 271 kts | 240° |
| 2026-05-08 00:13 | 43.95417 | -78.99661 | 11003 ft | 262 kts | 240° |
| 2026-05-08 00:13 | 43.94440 | -79.01783 | 11011 ft | 262 kts | 241° |
| 2026-05-08 00:13 | 43.93464 | -79.03913 | 11010 ft | 261 kts | 241° |
| 2026-05-08 00:13 | 43.92493 | -79.06035 | 11011 ft | 260 kts | 240° |
| 2026-05-08 00:14 | 43.91521 | -79.08159 | 11011 ft | 261 kts | 240° |
| 2026-05-08 00:14 | 43.90546 | -79.10288 | 10936 ft | 263 kts | 240° |
| 2026-05-08 00:14 | 43.89566 | -79.12415 | 10670 ft | 260 kts | 240° |
| 2026-05-08 00:14 | 43.88595 | -79.14514 | 10417 ft | 258 kts | 240° |
| 2026-05-08 00:15 | 43.87640 | -79.16578 | 10165 ft | 256 kts | 240° |
| 2026-05-08 00:15 | 43.86668 | -79.18682 | 9935 ft | 255 kts | 240° |
| 2026-05-08 00:15 | 43.85724 | -79.20723 | 9821 ft | 255 kts | 240° |
| 2026-05-08 00:15 | 43.84775 | -79.22777 | 9672 ft | 248 kts | 240° |
| 2026-05-08 00:16 | 43.83858 | -79.24754 | 9545 ft | 244 kts | 240° |
| 2026-05-08 00:16 | 43.82923 | -79.26772 | 9407 ft | 250 kts | 240° |
| 2026-05-08 00:16 | 43.81979 | -79.28807 | 9201 ft | 252 kts | 240° |
| 2026-05-08 00:16 | 43.81032 | -79.30846 | 8990 ft | 251 kts | 240° |
| 2026-05-08 00:17 | 43.80086 | -79.32885 | 8770 ft | 251 kts | 240° |
| 2026-05-08 00:17 | 43.79144 | -79.34897 | 8557 ft | 252 kts | 237° |
| 2026-05-08 00:17 | 43.77956 | -79.36691 | 8344 ft | 256 kts | 223° |
| 2026-05-08 00:17 | 43.76507 | -79.38141 | 8149 ft | 257 kts | 219° |
| 2026-05-08 00:18 | 43.75041 | -79.39560 | 8034 ft | 258 kts | 219° |
| 2026-05-08 00:18 | 43.73598 | -79.40954 | 8007 ft | 245 kts | 219° |
| 2026-05-08 00:18 | 43.72231 | -79.42271 | 8010 ft | 235 kts | 219° |
| 2026-05-08 00:18 | 43.70910 | -79.43546 | 8013 ft | 226 kts | 219° |
| 2026-05-08 00:19 | 43.69640 | -79.44775 | 8020 ft | 221 kts | 219° |
| 2026-05-08 00:19 | 43.68403 | -79.45978 | 8016 ft | 220 kts | 219° |
| 2026-05-08 00:19 | 43.67151 | -79.47197 | 7949 ft | 218 kts | 219° |
| 2026-05-08 00:19 | 43.65913 | -79.48401 | 7616 ft | 218 kts | 219° |
| 2026-05-08 00:20 | 43.64668 | -79.49607 | 7291 ft | 218 kts | 218° |
| 2026-05-08 00:20 | 43.63415 | -79.50806 | 6947 ft | 219 kts | 218° |
| 2026-05-08 00:20 | 43.62159 | -79.52002 | 6608 ft | 219 kts | 218° |
| 2026-05-08 00:20 | 43.60907 | -79.53194 | 6271 ft | 219 kts | 218° |
| 2026-05-08 00:21 | 43.59734 | -79.54341 | 5927 ft | 217 kts | 223° |
| 2026-05-08 00:21 | 43.58665 | -79.55830 | 5586 ft | 215 kts | 229° |
| 2026-05-08 00:21 | 43.57652 | -79.57311 | 5236 ft | 215 kts | 229° |
| 2026-05-08 00:21 | 43.56616 | -79.58815 | 4900 ft | 215 kts | 229° |
| 2026-05-08 00:22 | 43.55589 | -79.60305 | 4545 ft | 214 kts | 229° |
| 2026-05-08 00:22 | 43.54565 | -79.61792 | 4211 ft | 213 kts | 229° |
| 2026-05-08 00:22 | 43.53547 | -79.63270 | 4026 ft | 211 kts | 229° |
| 2026-05-08 00:22 | 43.52529 | -79.64746 | 4027 ft | 213 kts | 229° |
| 2026-05-08 00:23 | 43.51508 | -79.66226 | 4024 ft | 213 kts | 229° |
| 2026-05-08 00:23 | 43.50498 | -79.67687 | 4025 ft | 213 kts | 229° |
| 2026-05-08 00:23 | 43.49622 | -79.69296 | 3941 ft | 208 kts | 250° |
| 2026-05-08 00:23 | 43.49495 | -79.71221 | 3604 ft | 203 kts | 285° |
| 2026-05-08 00:24 | 43.50220 | -79.72864 | 3262 ft | 205 kts | 314° |
| 2026-05-08 00:24 | 43.51298 | -79.74144 | 3034 ft | 205 kts | 319° |
| 2026-05-08 00:24 | 43.52426 | -79.75371 | 3029 ft | 207 kts | 320° |
| 2026-05-08 00:24 | 43.53618 | -79.76489 | 3018 ft | 209 kts | 335° |
| 2026-05-08 00:25 | 43.55031 | -79.76836 | 3015 ft | 204 kts | 2° |
| 2026-05-08 00:25 | 43.56339 | -79.76268 | 3053 ft | 196 kts | 28° |
| 2026-05-08 00:25 | 43.57355 | -79.75032 | 3031 ft | 195 kts | 44° |
| 2026-05-08 00:25 | 43.58279 | -79.73689 | 2832 ft | 191 kts | 44° |
| 2026-05-08 00:26 | 43.59189 | -79.72368 | 2598 ft | 190 kts | 44° |
| 2026-05-08 00:26 | 43.60096 | -79.71056 | 2345 ft | 189 kts | 44° |
| 2026-05-08 00:26 | 43.60981 | -79.69772 | 2084 ft | 179 kts | 44° |
| 2026-05-08 00:26 | 43.61803 | -79.68581 | 1865 ft | 162 kts | 44° |
| 2026-05-08 00:27 | 43.62544 | -79.67506 | 1638 ft | 151 kts | 44° |
| 2026-05-08 00:27 | 43.63258 | -79.66473 | 1420 ft | 147 kts | 44° |
| 2026-05-08 00:27 | 43.63949 | -79.65439 | 1190 ft | 145 kts | 46° |
| 2026-05-08 00:27 | 43.64642 | -79.64454 | 1005 ft | 142 kts | 44° |
| 2026-05-08 00:28 | 43.65327 | -79.63466 | 810 ft | 142 kts | 46° |
| 2026-05-08 00:28 | 43.66012 | -79.62477 | 636 ft | 142 kts | 45° |
| 2026-05-08 00:28 | 43.66673 | -79.61517 | 571 ft | 122 kts | 46° |
| 2026-05-08 00:28 | 43.67121 | -79.60869 | 569 ft | 51 kts | 47° |
| 2026-05-08 00:29 | 43.67261 | -79.60660 | 571 ft | 8 kts | 47° |
| 2026-05-08 00:29 | 43.67287 | -79.60622 | 572 ft | 17 kts | 46° |
| 2026-05-08 00:29 | 43.67377 | -79.60505 | 576 ft | 14 kts | 38° |
| 2026-05-08 00:29 | 43.67470 | -79.60444 | 575 ft | 15 kts | 19° |
| 2026-05-08 00:30 | 43.67537 | -79.60419 | 575 ft | 6 kts | 14° |
| 2026-05-08 00:30 | 43.67565 | -79.60409 | 576 ft | 0 kts | 14° |
| 2026-05-08 00:30 | 43.67602 | -79.60396 | 575 ft | 11 kts | 16° |
| 2026-05-08 00:31 | 43.67658 | -79.60396 | 577 ft | 3 kts | 272° |
| 2026-05-08 00:31 | 43.67624 | -79.60467 | 577 ft | 14 kts | 228° |
| 2026-05-08 00:31 | 43.67547 | -79.60575 | 571 ft | 18 kts | 225° |
| 2026-05-08 00:31 | 43.67455 | -79.60708 | 568 ft | 20 kts | 227° |
| 2026-05-08 00:32 | 43.67352 | -79.60860 | 569 ft | 23 kts | 224° |
| 2026-05-08 00:32 | 43.67252 | -79.61006 | 569 ft | 20 kts | 228° |
| 2026-05-08 00:32 | 43.67192 | -79.61130 | 562 ft | 15 kts | 275° |
| 2026-05-08 00:32 | 43.67264 | -79.61245 | 559 ft | 17 kts | 317° |
| 2026-05-08 00:33 | 43.67323 | -79.61321 | 557 ft | 17 kts | 317° |
| 2026-05-08 00:33 | 43.67400 | -79.61422 | 563 ft | 15 kts | 316° |
| 2026-05-08 00:33 | 43.67480 | -79.61526 | 560 ft | 17 kts | 316° |
| 2026-05-08 00:33 | 43.67596 | -79.61677 | 571 ft | 17 kts | 316° |
| 2026-05-08 00:34 | 43.67681 | -79.61790 | 564 ft | 17 kts | 316° |
| 2026-05-08 00:34 | 43.67775 | -79.61911 | 566 ft | 18 kts | 316° |
| 2026-05-08 00:34 | 43.67832 | -79.61984 | 563 ft | 13 kts | 317° |
| 2026-05-08 00:34 | 43.67913 | -79.62063 | 563 ft | 14 kts | 352° |
| 2026-05-08 00:35 | 43.67985 | -79.61992 | 561 ft | 13 kts | 72° |
| 2026-05-08 00:35 | 43.68017 | -79.61884 | 570 ft | 11 kts | 53° |
| 2026-05-08 00:35 | 43.68070 | -79.61808 | 572 ft | 11 kts | 46° |
| 2026-05-08 00:35 | 43.68115 | -79.61740 | 565 ft | 8 kts | 57° |
| 2026-05-08 00:36 | 43.68110 | -79.61669 | 568 ft | 7 kts | 114° |
| 2026-05-08 00:36 | 43.68087 | -79.61633 | 568 ft | 2 kts | 135° |
| 2026-05-08 00:36 | 43.68074 | -79.61616 | 568 ft | 4 kts | 135° |
| 2026-05-08 00:36 | 43.68068 | -79.61608 | 567 ft | 0 kts | 135° |